Fuji Maru — JD2030 — position and weather

sailwx.info

Track history (hours):
 
Tides and Currents Weather Stations Pressure Air Temp Water Temp Dewpoint Dewpoint Depression Visibility Wind Speed Wind Dir Waves Ship Positions

Fuji Maru

Last reported at 2016-Dec-10 00:12 UTC. Time now 2016-Dec-10 01:15 UTC.
Position N 35°39' E 139°46'.

Length 38 m; draft 4.4 m.

Type: Tug. MMSI: 431001102.

Date/timePositionNaut miles runAvg speedWind from/ knotsBaromVisibWave heightAir tempDewpointWater temp
2016-Dec-10 00:12N 35°39' E 139°46'3 3.8
2016-Dec-09 23:32N 35°36' E 139°47'1 0.6
2016-Dec-09 22:32N 35°36' E 139°48'1 1.0
2016-Dec-09 21:33N 35°36' E 139°46'3 2.5
2016-Dec-09 20:22N 35°39' E 139°46'0 0.0
2016-Dec-09 19:28N 35°39' E 139°46'0 0.0
2016-Dec-09 18:28N 35°39' E 139°46'0 0.0
2016-Dec-09 17:28N 35°39' E 139°46'0 0.0
2016-Dec-09 15:22N 35°39' E 139°46'0 0.0
2016-Dec-09 13:28N 35°39' E 139°46'0 0.0
2016-Dec-09 11:16N 35°39' E 139°46'0 0.0
2016-Dec-09 10:28N 35°39' E 139°46'2 2.5
2016-Dec-09 09:33N 35°37' E 139°46'2 1.6
2016-Dec-09 08:32N 35°38' E 139°45'2 2.5
2016-Dec-09 07:33N 35°36' E 139°47'2 2.3
2016-Dec-09 06:33N 35°38' E 139°46'1 0.1
2016-Dec-08 12:33N 35°37' E 139°46'3 2.5
2016-Dec-08 11:33N 35°35' E 139°48'1 1.0
2016-Dec-08 10:33N 35°35' E 139°47'1 1.3
2016-Dec-08 09:29N 35°37' E 139°46'2 1.1
2016-Dec-08 07:32N 35°39' E 139°46'0 0.0
2016-Dec-08 06:32N 35°39' E 139°46'0 0.0
2016-Dec-08 04:32N 35°39' E 139°46'0 0.0
2016-Dec-08 03:29N 35°39' E 139°46'0 0.0
2016-Dec-08 02:29N 35°39' E 139°46'0 0.0
2016-Dec-08 01:14N 35°39' E 139°46'0 0.0
2016-Dec-08 00:17N 35°39' E 139°46'0 0.0
2016-Dec-07 23:29N 35°39' E 139°46'2 2.2
2016-Dec-07 22:27N 35°37' E 139°46'3 3.2
2016-Dec-07 21:33N 35°34' E 139°48'2 1.6
2016-Dec-07 20:33N 35°35' E 139°47'1 0.6
2016-Dec-07 19:33N 35°36' E 139°46'3 2.9
2016-Dec-07 18:32N 35°39' E 139°46'0 0.0
2016-Dec-07 17:29N 35°39' E 139°46'0 0.0
2016-Dec-07 16:20N 35°39' E 139°46'0 0.0
2016-Dec-07 15:26N 35°39' E 139°46'0 0.0
2016-Dec-07 12:23N 35°39' E 139°46'0 0.0
2016-Dec-07 11:32N 35°39' E 139°46'0 0.0
2016-Dec-07 10:23N 35°39' E 139°46'0 0.0
2016-Dec-07 09:29N 35°39' E 139°46'0 0.0
2016-Dec-07 08:23N 35°39' E 139°46'0 0.0
2016-Dec-07 07:17N 35°39' E 139°46'0 0.0
2016-Dec-07 05:29N 35°39' E 139°46'0 0.0
2016-Dec-07 04:29N 35°39' E 139°46'0 0.0
2016-Dec-06 23:32N 35°39' E 139°46'0 0.0
2016-Dec-06 22:11N 35°39' E 139°46'0 0.0
2016-Dec-06 21:29N 35°39' E 139°46'0 0.0
2016-Dec-06 20:29N 35°39' E 139°46'0 0.0
2016-Dec-06 18:29N 35°39' E 139°46'0 0.0
2016-Dec-06 17:29N 35°39' E 139°46'0 0.0
2016-Dec-06 16:17N 35°39' E 139°46'0 0.1
2016-Dec-06 15:29N 35°39' E 139°46'0 0.0
2016-Dec-06 13:29N 35°39' E 139°46'3 3.0
2016-Dec-06 12:33N 35°36' E 139°46'2 1.9
2016-Dec-06 11:25N 35°38' E 139°45'0 0.0
2016-Dec-06 10:22N 35°38' E 139°45'0 0.0
2016-Dec-06 09:16N 35°38' E 139°45'1 1.4
2016-Dec-06 08:28N 35°37' E 139°46'3 3.6
2016-Dec-06 07:33N 35°34' E 139°48'3 2.9
2016-Dec-06 06:31N 35°37' E 139°46'2 2.1
2016-Dec-06 05:32N 35°39' E 139°46'0 0.0
2016-Dec-06 04:23N 35°39' E 139°46'0 0.0
2016-Dec-06 03:29N 35°39' E 139°46'0 0.0
2016-Dec-06 02:32N 35°39' E 139°46'0 0.0
2016-Dec-06 01:32N 35°39' E 139°46'0 0.0
2016-Dec-06 00:32N 35°39' E 139°46'3 2.7
2016-Dec-05 23:19N 35°36' E 139°47'2 2.9
2016-Dec-05 22:33N 35°34' E 139°49'5 5.0
2016-Dec-05 21:30N 35°39' E 139°46'0 0.0
2016-Dec-05 20:33N 35°39' E 139°46'0 0.0
2016-Dec-05 19:33N 35°39' E 139°46'0 0.0
2016-Dec-05 18:33N 35°39' E 139°46'0 0.0
2016-Dec-05 17:33N 35°39' E 139°46'0 0.0
2016-Dec-05 16:30N 35°39' E 139°46'0 0.0
2016-Dec-05 15:30N 35°39' E 139°46'0 0.0
2016-Dec-05 14:30N 35°39' E 139°46'0 0.0
2016-Dec-05 13:32N 35°39' E 139°46'0 0.0
2016-Dec-05 12:33N 35°39' E 139°46'0 0.0
2016-Dec-05 10:32N 35°39' E 139°46'5 2.5
2016-Dec-05 08:33N 35°34' E 139°48'5 4.2
2016-Dec-05 07:22N 35°39' E 139°46'0 0.0
2016-Dec-05 05:28N 35°39' E 139°46'0 0.0
2016-Dec-05 04:31N 35°39' E 139°46'0 0.0
2016-Dec-05 03:31N 35°39' E 139°46'0 0.0
2016-Dec-05 02:19N 35°39' E 139°46'0 0.0
2016-Dec-05 01:31N 35°39' E 139°46'0 0.1
2016-Dec-05 00:19N 35°39' E 139°46'0 0.1
2016-Dec-04 23:31N 35°39' E 139°46'0 0.0
2016-Dec-04 22:28N 35°39' E 139°46'0 0.0
2016-Dec-04 21:31N 35°39' E 139°46'1 0.7
2016-Dec-04 20:33N 35°38' E 139°46'1 0.6
2016-Dec-04 19:33N 35°38' E 139°46'1 1.2
2016-Dec-04 18:31N 35°39' E 139°46'0 0.0
2016-Dec-04 17:31N 35°39' E 139°46'0 0.0
2016-Dec-04 16:31N 35°39' E 139°46'0 0.0
2016-Dec-04 15:31N 35°39' E 139°46'0 0.0
2016-Dec-04 14:31N 35°39' E 139°46'0 0.0
2016-Dec-04 13:31N 35°39' E 139°46'0 0.0
2016-Dec-04 12:31N 35°39' E 139°46'0 0.0
2016-Dec-04 11:28N 35°39' E 139°46'0 0.0
2016-Dec-04 10:31N 35°39' E 139°46'0 0.0
2016-Dec-04 09:25N 35°39' E 139°46'0 0.0
2016-Dec-04 08:31N 35°39' E 139°46'0 0.0
2016-Dec-04 07:25N 35°39' E 139°46'0 0.0
2016-Dec-04 06:31N 35°39' E 139°46'0 0.0
2016-Dec-04 05:31N 35°39' E 139°46'3 2.5
2016-Dec-04 04:31N 35°36' E 139°47'3 2.6
2016-Dec-04 03:33N 35°34' E 139°48'3 2.8
2016-Dec-04 02:33N 35°36' E 139°46'2 2.3
2016-Dec-04 01:31N 35°39' E 139°46'0 0.0
2016-Dec-04 00:31N 35°39' E 139°46'0 0.0
2016-Dec-03 23:31N 35°39' E 139°46'0 0.0
2016-Dec-03 22:31N 35°39' E 139°46'0 0.0
2016-Dec-03 21:28N 35°39' E 139°46'0 0.0
2016-Dec-03 20:31N 35°39' E 139°46'0 0.0
2016-Dec-03 19:28N 35°39' E 139°46'0 0.0
2016-Dec-03 18:31N 35°39' E 139°46'0 0.0
2016-Dec-03 17:31N 35°39' E 139°46'0 0.0
2016-Dec-03 15:31N 35°39' E 139°46'0 0.0
2016-Dec-03 14:25N 35°39' E 139°46'0 0.1
2016-Dec-03 13:31N 35°39' E 139°46'0 0.0
2016-Dec-03 12:31N 35°39' E 139°46'0 0.0
2016-Dec-03 11:31N 35°39' E 139°46'0 0.0
2016-Dec-03 10:22N 35°39' E 139°46'0 0.0
2016-Dec-03 09:31N 35°39' E 139°46'0 0.0
2016-Dec-03 08:31N 35°39' E 139°46'0 0.0
2016-Dec-03 07:31N 35°39' E 139°46'0 0.0
2016-Dec-03 06:31N 35°39' E 139°46'3 2.8
2016-Dec-03 05:33N 35°37' E 139°48'3 2.6
2016-Dec-03 04:32N 35°39' E 139°46'0 0.0
2016-Dec-03 03:25N 35°39' E 139°46'0 0.0
2016-Dec-03 02:31N 35°39' E 139°46'0 0.0
2016-Dec-03 01:31N 35°39' E 139°46'0 0.0
2016-Dec-03 00:31N 35°39' E 139°46'2 2.3
2016-Dec-02 23:33N 35°37' E 139°46'2 1.6
2016-Dec-02 22:33N 35°35' E 139°47'4 1.2
2016-Dec-02 19:19N 35°39' E 139°46'0 0.1
2016-Dec-02 18:31N 35°39' E 139°46'0 0.0
2016-Dec-02 17:31N 35°39' E 139°46'0 0.0
2016-Dec-02 16:31N 35°39' E 139°46'0 0.0
2016-Dec-02 15:19N 35°39' E 139°46'0 0.1
2016-Dec-02 14:25N 35°39' E 139°46'0 0.0
2016-Dec-02 13:19N 35°39' E 139°46'0 0.0
2016-Dec-02 12:31N 35°39' E 139°46'0 0.0
2016-Dec-02 10:24N 35°39' E 139°46'3 3.1
2016-Dec-02 09:33N 35°36' E 139°46'3 3.3
2016-Dec-02 08:32N 35°34' E 139°49'3 3.0
2016-Dec-02 07:31N 35°36' E 139°46'0 0.4
2016-Dec-02 06:33N 35°36' E 139°46'3 2.5
2016-Dec-02 05:33N 35°39' E 139°46'0 0.0
2016-Dec-02 04:27N 35°39' E 139°46'0 0.0
2016-Dec-02 03:33N 35°39' E 139°46'2 0.4
2016-Dec-01 22:34N 35°37' E 139°46'1 1.2
2016-Dec-01 21:28N 35°37' E 139°48'0 0.1
2016-Dec-01 20:33N 35°37' E 139°47'1 1.3
2016-Dec-01 19:29N 35°37' E 139°46'2 1.9
2016-Dec-01 18:24N 35°39' E 139°46'0 0.0
2016-Dec-01 17:30N 35°39' E 139°46'0 0.0
2016-Dec-01 16:24N 35°39' E 139°46'0 0.0
2016-Dec-01 15:30N 35°39' E 139°46'0 0.0
2016-Dec-01 14:33N 35°39' E 139°46'0 0.0
2016-Dec-01 13:33N 35°39' E 139°46'0 0.0
2016-Dec-01 12:15N 35°39' E 139°46'0 0.0
2016-Dec-01 11:33N 35°39' E 139°46'0 0.0
2016-Dec-01 10:33N 35°39' E 139°46'0 0.0
2016-Dec-01 09:30N 35°39' E 139°46'0 0.0
2016-Dec-01 08:30N 35°39' E 139°46'0 0.0
2016-Dec-01 07:33N 35°39' E 139°46'0 0.0
2016-Dec-01 06:30N 35°39' E 139°46'0 0.0
2016-Dec-01 05:30N 35°39' E 139°46'3 2.8
2016-Dec-01 04:32N 35°36' E 139°46'3 2.6
2016-Dec-01 03:30N 35°39' E 139°46'0 0.0
2016-Dec-01 02:27N 35°39' E 139°46'0 0.0
2016-Dec-01 01:33N 35°39' E 139°46'0 0.1
2016-Dec-01 00:33N 35°39' E 139°46'0 0.1
2016-Nov-30 23:27N 35°39' E 139°46'0 0.0
2016-Nov-30 22:24N 35°39' E 139°46'0 0.0
2016-Nov-30 21:33N 35°39' E 139°46'0 0.0
2016-Nov-30 20:27N 35°39' E 139°46'0 0.0
2016-Nov-30 19:33N 35°39' E 139°46'0 0.0
2016-Nov-30 18:27N 35°39' E 139°46'0 0.0
2016-Nov-30 17:27N 35°39' E 139°46'0 0.1
2016-Nov-30 16:30N 35°39' E 139°46'0 0.0
2016-Nov-30 13:18N 35°39' E 139°46'0 0.0
2016-Nov-30 12:24N 35°39' E 139°46'0 0.0
2016-Nov-30 11:33N 35°39' E 139°46'0 0.0
2016-Nov-30 10:15N 35°39' E 139°46'0 0.0
2016-Nov-30 08:30N 35°39' E 139°46'0 0.0
2016-Nov-30 07:33N 35°39' E 139°46'2 1.5
2016-Nov-30 06:31N 35°37' E 139°46'2 2.4
2016-Nov-30 05:33N 35°35' E 139°47'4 3.6
2016-Nov-30 04:33N 35°39' E 139°46'0 0.0
2016-Nov-30 03:28N 35°39' E 139°46'0 0.0
2016-Nov-30 02:28N 35°39' E 139°46'0 0.0
2016-Nov-30 01:22N 35°39' E 139°46'0 0.0
2016-Nov-30 00:28N 35°39' E 139°46'  
Track history (hours):
 
Tides and Currents Weather Stations Pressure Air Temp Water Temp Dewpoint Dewpoint Depression Visibility Wind Speed Wind Dir Waves Ship Positions

Fuji Maru

Last reported at 2016-Dec-10 00:12 UTC. Time now 2016-Dec-10 01:15 UTC.
Position N 35°39' E 139°46'.

Length 38 m; draft 4.4 m.

Type: Tug. MMSI: 431001102.

Date/timePositionNaut miles runAvg speedWind from/ knotsBaromVisibWave heightAir tempDewpointWater temp
2016-Dec-10 00:12N 35°39' E 139°46'3 3.8
2016-Dec-09 23:32N 35°36' E 139°47'1 0.6
2016-Dec-09 22:32N 35°36' E 139°48'1 1.0
2016-Dec-09 21:33N 35°36' E 139°46'3 2.5
2016-Dec-09 20:22N 35°39' E 139°46'0 0.0
2016-Dec-09 19:28N 35°39' E 139°46'0 0.0
2016-Dec-09 18:28N 35°39' E 139°46'0 0.0
2016-Dec-09 17:28N 35°39' E 139°46'0 0.0
2016-Dec-09 15:22N 35°39' E 139°46'0 0.0
2016-Dec-09 13:28N 35°39' E 139°46'0 0.0
2016-Dec-09 11:16N 35°39' E 139°46'0 0.0
2016-Dec-09 10:28N 35°39' E 139°46'2 2.5
2016-Dec-09 09:33N 35°37' E 139°46'2 1.6
2016-Dec-09 08:32N 35°38' E 139°45'2 2.5
2016-Dec-09 07:33N 35°36' E 139°47'2 2.3
2016-Dec-09 06:33N 35°38' E 139°46'1 0.1
2016-Dec-08 12:33N 35°37' E 139°46'3 2.5
2016-Dec-08 11:33N 35°35' E 139°48'1 1.0
2016-Dec-08 10:33N 35°35' E 139°47'1 1.3
2016-Dec-08 09:29N 35°37' E 139°46'2 1.1
2016-Dec-08 07:32N 35°39' E 139°46'0 0.0
2016-Dec-08 06:32N 35°39' E 139°46'0 0.0
2016-Dec-08 04:32N 35°39' E 139°46'0 0.0
2016-Dec-08 03:29N 35°39' E 139°46'0 0.0
2016-Dec-08 02:29N 35°39' E 139°46'0 0.0
2016-Dec-08 01:14N 35°39' E 139°46'0 0.0
2016-Dec-08 00:17N 35°39' E 139°46'0 0.0
2016-Dec-07 23:29N 35°39' E 139°46'2 2.2
2016-Dec-07 22:27N 35°37' E 139°46'3 3.2
2016-Dec-07 21:33N 35°34' E 139°48'2 1.6
2016-Dec-07 20:33N 35°35' E 139°47'1 0.6
2016-Dec-07 19:33N 35°36' E 139°46'3 2.9
2016-Dec-07 18:32N 35°39' E 139°46'0 0.0
2016-Dec-07 17:29N 35°39' E 139°46'0 0.0
2016-Dec-07 16:20N 35°39' E 139°46'0 0.0
2016-Dec-07 15:26N 35°39' E 139°46'0 0.0
2016-Dec-07 12:23N 35°39' E 139°46'0 0.0
2016-Dec-07 11:32N 35°39' E 139°46'0 0.0
2016-Dec-07 10:23N 35°39' E 139°46'0 0.0
2016-Dec-07 09:29N 35°39' E 139°46'0 0.0
2016-Dec-07 08:23N 35°39' E 139°46'0 0.0
2016-Dec-07 07:17N 35°39' E 139°46'0 0.0
2016-Dec-07 05:29N 35°39' E 139°46'0 0.0
2016-Dec-07 04:29N 35°39' E 139°46'0 0.0
2016-Dec-06 23:32N 35°39' E 139°46'0 0.0
2016-Dec-06 22:11N 35°39' E 139°46'0 0.0
2016-Dec-06 21:29N 35°39' E 139°46'0 0.0
2016-Dec-06 20:29N 35°39' E 139°46'0 0.0
2016-Dec-06 18:29N 35°39' E 139°46'0 0.0
2016-Dec-06 17:29N 35°39' E 139°46'0 0.0
2016-Dec-06 16:17N 35°39' E 139°46'0 0.1
2016-Dec-06 15:29N 35°39' E 139°46'0 0.0
2016-Dec-06 13:29N 35°39' E 139°46'3 3.0
2016-Dec-06 12:33N 35°36' E 139°46'2 1.9
2016-Dec-06 11:25N 35°38' E 139°45'0 0.0
2016-Dec-06 10:22N 35°38' E 139°45'0 0.0
2016-Dec-06 09:16N 35°38' E 139°45'1 1.4
2016-Dec-06 08:28N 35°37' E 139°46'3 3.6
2016-Dec-06 07:33N 35°34' E 139°48'3 2.9
2016-Dec-06 06:31N 35°37' E 139°46'2 2.1
2016-Dec-06 05:32N 35°39' E 139°46'0 0.0
2016-Dec-06 04:23N 35°39' E 139°46'0 0.0
2016-Dec-06 03:29N 35°39' E 139°46'0 0.0
2016-Dec-06 02:32N 35°39' E 139°46'0 0.0
2016-Dec-06 01:32N 35°39' E 139°46'0 0.0
2016-Dec-06 00:32N 35°39' E 139°46'3 2.7
2016-Dec-05 23:19N 35°36' E 139°47'2 2.9
2016-Dec-05 22:33N 35°34' E 139°49'5 5.0
2016-Dec-05 21:30N 35°39' E 139°46'0 0.0
2016-Dec-05 20:33N 35°39' E 139°46'0 0.0
2016-Dec-05 19:33N 35°39' E 139°46'0 0.0
2016-Dec-05 18:33N 35°39' E 139°46'0 0.0
2016-Dec-05 17:33N 35°39' E 139°46'0 0.0
2016-Dec-05 16:30N 35°39' E 139°46'0 0.0
2016-Dec-05 15:30N 35°39' E 139°46'0 0.0
2016-Dec-05 14:30N 35°39' E 139°46'0 0.0
2016-Dec-05 13:32N 35°39' E 139°46'0 0.0
2016-Dec-05 12:33N 35°39' E 139°46'0 0.0
2016-Dec-05 10:32N 35°39' E 139°46'5 2.5
2016-Dec-05 08:33N 35°34' E 139°48'5 4.2
2016-Dec-05 07:22N 35°39' E 139°46'0 0.0
2016-Dec-05 05:28N 35°39' E 139°46'0 0.0
2016-Dec-05 04:31N 35°39' E 139°46'0 0.0
2016-Dec-05 03:31N 35°39' E 139°46'0 0.0
2016-Dec-05 02:19N 35°39' E 139°46'0 0.0
2016-Dec-05 01:31N 35°39' E 139°46'0 0.1
2016-Dec-05 00:19N 35°39' E 139°46'0 0.1
2016-Dec-04 23:31N 35°39' E 139°46'0 0.0
2016-Dec-04 22:28N 35°39' E 139°46'0 0.0
2016-Dec-04 21:31N 35°39' E 139°46'1 0.7
2016-Dec-04 20:33N 35°38' E 139°46'1 0.6
2016-Dec-04 19:33N 35°38' E 139°46'1 1.2
2016-Dec-04 18:31N 35°39' E 139°46'0 0.0
2016-Dec-04 17:31N 35°39' E 139°46'0 0.0
2016-Dec-04 16:31N 35°39' E 139°46'0 0.0
2016-Dec-04 15:31N 35°39' E 139°46'0 0.0
2016-Dec-04 14:31N 35°39' E 139°46'0 0.0
2016-Dec-04 13:31N 35°39' E 139°46'0 0.0
2016-Dec-04 12:31N 35°39' E 139°46'0 0.0
2016-Dec-04 11:28N 35°39' E 139°46'0 0.0
2016-Dec-04 10:31N 35°39' E 139°46'0 0.0
2016-Dec-04 09:25N 35°39' E 139°46'0 0.0
2016-Dec-04 08:31N 35°39' E 139°46'0 0.0
2016-Dec-04 07:25N 35°39' E 139°46'0 0.0
2016-Dec-04 06:31N 35°39' E 139°46'0 0.0
2016-Dec-04 05:31N 35°39' E 139°46'3 2.5
2016-Dec-04 04:31N 35°36' E 139°47'3 2.6
2016-Dec-04 03:33N 35°34' E 139°48'3 2.8
2016-Dec-04 02:33N 35°36' E 139°46'2 2.3
2016-Dec-04 01:31N 35°39' E 139°46'0 0.0
2016-Dec-04 00:31N 35°39' E 139°46'0 0.0
2016-Dec-03 23:31N 35°39' E 139°46'0 0.0
2016-Dec-03 22:31N 35°39' E 139°46'0 0.0
2016-Dec-03 21:28N 35°39' E 139°46'0 0.0
2016-Dec-03 20:31N 35°39' E 139°46'0 0.0
2016-Dec-03 19:28N 35°39' E 139°46'0 0.0
2016-Dec-03 18:31N 35°39' E 139°46'0 0.0
2016-Dec-03 17:31N 35°39' E 139°46'0 0.0
2016-Dec-03 15:31N 35°39' E 139°46'0 0.0
2016-Dec-03 14:25N 35°39' E 139°46'0 0.1
2016-Dec-03 13:31N 35°39' E 139°46'0 0.0
2016-Dec-03 12:31N 35°39' E 139°46'0 0.0
2016-Dec-03 11:31N 35°39' E 139°46'0 0.0
2016-Dec-03 10:22N 35°39' E 139°46'0 0.0
2016-Dec-03 09:31N 35°39' E 139°46'0 0.0
2016-Dec-03 08:31N 35°39' E 139°46'0 0.0
2016-Dec-03 07:31N 35°39' E 139°46'0 0.0
2016-Dec-03 06:31N 35°39' E 139°46'3 2.8
2016-Dec-03 05:33N 35°37' E 139°48'3 2.6
2016-Dec-03 04:32N 35°39' E 139°46'0 0.0
2016-Dec-03 03:25N 35°39' E 139°46'0 0.0
2016-Dec-03 02:31N 35°39' E 139°46'0 0.0
2016-Dec-03 01:31N 35°39' E 139°46'0 0.0
2016-Dec-03 00:31N 35°39' E 139°46'2 2.3
2016-Dec-02 23:33N 35°37' E 139°46'2 1.6
2016-Dec-02 22:33N 35°35' E 139°47'4 1.2
2016-Dec-02 19:19N 35°39' E 139°46'0 0.1
2016-Dec-02 18:31N 35°39' E 139°46'0 0.0
2016-Dec-02 17:31N 35°39' E 139°46'0 0.0
2016-Dec-02 16:31N 35°39' E 139°46'0 0.0
2016-Dec-02 15:19N 35°39' E 139°46'0 0.1
2016-Dec-02 14:25N 35°39' E 139°46'0 0.0
2016-Dec-02 13:19N 35°39' E 139°46'0 0.0
2016-Dec-02 12:31N 35°39' E 139°46'0 0.0
2016-Dec-02 10:24N 35°39' E 139°46'3 3.1
2016-Dec-02 09:33N 35°36' E 139°46'3 3.3
2016-Dec-02 08:32N 35°34' E 139°49'3 3.0
2016-Dec-02 07:31N 35°36' E 139°46'0 0.4
2016-Dec-02 06:33N 35°36' E 139°46'3 2.5
2016-Dec-02 05:33N 35°39' E 139°46'0 0.0
2016-Dec-02 04:27N 35°39' E 139°46'0 0.0
2016-Dec-02 03:33N 35°39' E 139°46'2 0.4
2016-Dec-01 22:34N 35°37' E 139°46'1 1.2
2016-Dec-01 21:28N 35°37' E 139°48'0 0.1
2016-Dec-01 20:33N 35°37' E 139°47'1 1.3
2016-Dec-01 19:29N 35°37' E 139°46'2 1.9
2016-Dec-01 18:24N 35°39' E 139°46'0 0.0
2016-Dec-01 17:30N 35°39' E 139°46'0 0.0
2016-Dec-01 16:24N 35°39' E 139°46'0 0.0
2016-Dec-01 15:30N 35°39' E 139°46'0 0.0
2016-Dec-01 14:33N 35°39' E 139°46'0 0.0
2016-Dec-01 13:33N 35°39' E 139°46'0 0.0
2016-Dec-01 12:15N 35°39' E 139°46'0 0.0
2016-Dec-01 11:33N 35°39' E 139°46'0 0.0
2016-Dec-01 10:33N 35°39' E 139°46'0 0.0
2016-Dec-01 09:30N 35°39' E 139°46'0 0.0
2016-Dec-01 08:30N 35°39' E 139°46'0 0.0
2016-Dec-01 07:33N 35°39' E 139°46'0 0.0
2016-Dec-01 06:30N 35°39' E 139°46'0 0.0
2016-Dec-01 05:30N 35°39' E 139°46'3 2.8
2016-Dec-01 04:32N 35°36' E 139°46'3 2.6
2016-Dec-01 03:30N 35°39' E 139°46'0 0.0
2016-Dec-01 02:27N 35°39' E 139°46'0 0.0
2016-Dec-01 01:33N 35°39' E 139°46'0 0.1
2016-Dec-01 00:33N 35°39' E 139°46'0 0.1
2016-Nov-30 23:27N 35°39' E 139°46'0 0.0
2016-Nov-30 22:24N 35°39' E 139°46'0 0.0
2016-Nov-30 21:33N 35°39' E 139°46'0 0.0
2016-Nov-30 20:27N 35°39' E 139°46'0 0.0
2016-Nov-30 19:33N 35°39' E 139°46'0 0.0
2016-Nov-30 18:27N 35°39' E 139°46'0 0.0
2016-Nov-30 17:27N 35°39' E 139°46'0 0.1
2016-Nov-30 16:30N 35°39' E 139°46'0 0.0
2016-Nov-30 13:18N 35°39' E 139°46'0 0.0
2016-Nov-30 12:24N 35°39' E 139°46'0 0.0
2016-Nov-30 11:33N 35°39' E 139°46'0 0.0
2016-Nov-30 10:15N 35°39' E 139°46'0 0.0
2016-Nov-30 08:30N 35°39' E 139°46'0 0.0
2016-Nov-30 07:33N 35°39' E 139°46'2 1.5
2016-Nov-30 06:31N 35°37' E 139°46'2 2.4
2016-Nov-30 05:33N 35°35' E 139°47'4 3.6
2016-Nov-30 04:33N 35°39' E 139°46'0 0.0
2016-Nov-30 03:28N 35°39' E 139°46'0 0.0
2016-Nov-30 02:28N 35°39' E 139°46'0 0.0
2016-Nov-30 01:22N 35°39' E 139°46'0 0.0
2016-Nov-30 00:28N 35°39' E 139°46'  

Dump ship's entire track history